createdAt,value
2018-08-17T00:01:13.177Z,7.22
2018-08-17T00:06:16.516Z,7.05
2018-08-17T00:11:20.559Z,6.90
2018-08-17T00:16:23.956Z,7.20
2018-08-17T00:21:27.682Z,7.20
2018-08-17T00:26:31.814Z,7.90
2018-08-17T00:31:38.402Z,8.00
2018-08-17T00:36:45.195Z,8.80
2018-08-17T00:41:50.705Z,8.20
2018-08-17T00:46:54.041Z,8.15
2018-08-17T00:51:57.393Z,7.40
2018-08-17T00:57:00.724Z,7.42
2018-08-17T01:02:04.881Z,8.30
2018-08-17T01:07:11.368Z,8.58
2018-08-17T01:12:14.628Z,7.75
2018-08-17T01:17:18.041Z,8.13
2018-08-17T01:22:21.517Z,8.35
2018-08-17T01:27:24.839Z,8.80
2018-08-17T01:32:28.234Z,7.92
2018-08-17T01:37:31.521Z,8.30
2018-08-17T01:42:34.877Z,7.60
2018-08-17T01:47:38.537Z,7.30
2018-08-17T01:52:42.110Z,8.28
2018-08-17T01:57:45.417Z,8.33
2018-08-17T02:02:49.750Z,8.38
2018-08-17T02:13:25.588Z,8.60
2018-08-17T02:18:28.945Z,8.40
2018-08-17T02:23:32.260Z,8.60
2018-08-17T02:28:35.623Z,9.10
2018-08-17T02:33:38.928Z,9.20
2018-08-17T02:38:42.391Z,11.67
2018-08-17T02:43:45.805Z,8.78
2018-08-17T02:48:49.135Z,8.87
2018-08-17T02:53:52.526Z,8.33
2018-08-17T02:58:55.820Z,9.90
2018-08-17T03:03:59.215Z,9.35
2018-08-17T03:09:02.666Z,9.60
2018-08-17T03:14:06.710Z,9.45
2018-08-17T03:19:10.151Z,9.40
2018-08-17T03:24:16.949Z,8.95
2018-08-17T03:29:22.142Z,9.70
2018-08-17T03:34:30.241Z,9.50
2018-08-17T03:39:33.537Z,10.03
2018-08-17T03:44:36.888Z,10.10
2018-08-17T03:49:41.177Z,10.07
2018-08-17T03:54:44.434Z,10.78
2018-08-17T03:59:47.933Z,9.68
2018-08-17T04:04:51.283Z,10.38
2018-08-17T04:09:54.620Z,9.63
2018-08-17T04:14:58.068Z,10.00
2018-08-17T04:20:02.183Z,9.60
2018-08-17T04:25:06.817Z,10.32
2018-08-17T04:30:26.617Z,10.50
2018-08-17T04:35:29.977Z,10.07
2018-08-17T04:40:33.251Z,9.68
2018-08-17T04:45:36.591Z,9.90
2018-08-17T04:50:40.092Z,9.50
2018-08-17T04:55:44.004Z,9.13
2018-08-17T05:00:47.863Z,9.27
2018-08-17T05:05:52.250Z,8.07
2018-08-17T05:10:55.697Z,8.65
2018-08-17T05:15:59.175Z,10.00
2018-08-17T05:21:02.500Z,8.63
2018-08-17T05:26:05.840Z,7.90
2018-08-17T05:31:09.151Z,8.90
2018-08-17T05:36:12.525Z,8.60
2018-08-17T05:41:15.852Z,8.93
2018-08-17T05:46:19.317Z,10.43
2018-08-17T05:51:22.735Z,9.70
2018-08-17T05:56:26.114Z,8.45
2018-08-17T06:01:29.483Z,8.47
2018-08-17T06:06:32.811Z,9.08
2018-08-17T06:11:36.807Z,8.80
2018-08-17T06:16:40.128Z,9.78
2018-08-17T06:21:43.556Z,9.37
2018-08-17T06:26:47.695Z,9.30
2018-08-17T06:31:51.433Z,9.10
2018-08-17T06:36:54.656Z,8.63
2018-08-17T06:41:57.927Z,8.98
2018-08-17T06:47:01.258Z,8.60
2018-08-17T06:52:05.012Z,10.58
2018-08-17T06:57:08.404Z,9.00
2018-08-17T07:02:11.694Z,10.00
2018-08-17T07:07:15.037Z,8.33
2018-08-17T07:12:18.295Z,8.43
2018-08-17T07:17:21.620Z,8.43
2018-08-17T07:22:25.688Z,7.87
2018-08-17T07:27:29.715Z,7.53
2018-08-17T07:32:33.504Z,8.43
2018-08-17T07:37:36.859Z,8.03
2018-08-17T07:42:40.266Z,7.83
2018-08-17T07:47:43.658Z,8.23
2018-08-17T07:52:47.174Z,7.60
2018-08-17T07:57:50.552Z,8.13
2018-08-17T08:02:54.788Z,9.40
2018-08-17T08:07:58.182Z,8.27
2018-08-17T08:13:01.548Z,7.37
2018-08-17T08:18:04.965Z,8.30
2018-08-17T08:23:23.228Z,7.90
2018-08-17T08:28:31.202Z,7.40
2018-08-17T08:33:36.499Z,7.47
2018-08-17T08:38:39.931Z,8.43
2018-08-17T08:43:43.202Z,9.18
2018-08-17T08:48:46.452Z,10.25
2018-08-17T08:53:49.765Z,8.40
2018-08-17T08:58:53.223Z,9.90
2018-08-17T09:03:56.784Z,10.00
2018-08-17T09:09:00.125Z,8.73
2018-08-17T09:14:03.580Z,9.17
2018-08-17T09:19:07.020Z,10.10
2018-08-17T09:24:10.369Z,9.58
2018-08-17T09:29:13.793Z,9.60
2018-08-17T09:34:17.119Z,10.20
2018-08-17T09:39:20.733Z,9.00
2018-08-17T09:44:24.083Z,9.60
2018-08-17T09:49:27.419Z,8.45
2018-08-17T09:54:30.752Z,8.28
2018-08-17T09:59:34.110Z,8.13
2018-08-17T10:04:45.864Z,8.20
2018-08-17T10:09:55.825Z,8.77
2018-08-17T10:14:59.079Z,8.70
2018-08-17T10:20:02.407Z,8.47
2018-08-17T10:25:11.127Z,8.70
2018-08-17T10:30:14.609Z,8.63
2018-08-17T10:35:28.705Z,9.23
2018-08-17T10:40:32.154Z,8.00
2018-08-17T10:45:37.682Z,7.55
2018-08-17T10:50:41.078Z,8.37
2018-08-17T10:55:47.955Z,7.27
2018-08-17T11:00:51.300Z,7.20
2018-08-17T11:05:54.699Z,6.80
2018-08-17T11:10:58.690Z,8.98
2018-08-17T11:16:02.059Z,8.53
2018-08-17T11:21:05.467Z,7.10
2018-08-17T11:26:08.772Z,7.08
2018-08-17T11:31:12.064Z,6.07
2018-08-17T11:36:15.430Z,5.80
2018-08-17T11:41:19.097Z,7.63
2018-08-17T11:46:23.332Z,6.20
2018-08-17T11:51:27.667Z,9.45
2018-08-17T11:56:33.353Z,6.92
2018-08-17T12:01:36.770Z,6.50
2018-08-17T12:06:40.415Z,6.05
2018-08-17T12:11:43.815Z,5.83
2018-08-17T12:16:47.126Z,5.70
2018-08-17T12:21:50.713Z,5.35
2018-08-17T12:43:47.708Z,6.20
2018-08-17T12:54:27.171Z,5.30
2018-08-17T12:59:32.035Z,5.20
2018-08-17T13:04:36.175Z,6.50
2018-08-17T13:15:16.183Z,5.73
2018-08-17T13:20:21.569Z,4.80
2018-08-17T13:25:25.888Z,6.00
2018-08-17T13:30:29.263Z,5.50
2018-08-17T13:35:32.533Z,5.65
2018-08-17T13:40:35.992Z,5.70
2018-08-17T13:45:39.358Z,5.20
2018-08-17T13:50:42.794Z,5.47
2018-08-17T13:55:46.405Z,5.47
2018-08-17T14:00:49.864Z,5.53
2018-08-17T14:05:53.375Z,7.13
2018-08-17T14:10:56.920Z,6.20
2018-08-17T14:16:00.441Z,4.90
2018-08-17T14:21:03.756Z,5.03
2018-08-17T14:31:46.029Z,5.60
2018-08-17T14:37:13.104Z,7.15
2018-08-17T14:42:19.920Z,5.25
2018-08-17T14:47:39.599Z,7.72
2018-08-17T14:57:58.922Z,6.47
2018-08-17T15:03:03.674Z,5.20
2018-08-17T15:08:09.331Z,5.95
2018-08-17T15:13:16.918Z,6.00
2018-08-17T15:18:21.697Z,5.70
2018-08-17T15:23:29.177Z,7.55
2018-08-17T15:28:36.938Z,6.67
2018-08-17T15:33:40.950Z,6.35
2018-08-17T15:38:49.485Z,7.55
2018-08-17T15:43:55.410Z,6.28
2018-08-17T15:49:03.587Z,6.20
2018-08-17T15:54:12.952Z,8.50
2018-08-17T16:06:04.262Z,6.30
2018-08-17T16:11:09.454Z,6.00
2018-08-17T16:16:14.803Z,6.47
2018-08-17T16:21:22.613Z,6.33
2018-08-17T16:26:30.346Z,5.55
2018-08-17T16:31:41.798Z,9.60
2018-08-17T16:36:49.704Z,6.75
2018-08-17T16:41:53.824Z,6.57
2018-08-17T16:47:01.341Z,5.58
2018-08-17T16:52:05.660Z,5.27
2018-08-17T16:57:10.546Z,6.30
2018-08-17T17:02:15.145Z,5.63
2018-08-17T17:07:19.963Z,6.70
2018-08-17T17:12:23.811Z,5.40
2018-08-17T17:17:29.943Z,5.92
2018-08-17T17:22:33.941Z,5.10
2018-08-17T17:27:37.882Z,6.37
2018-08-17T17:32:42.483Z,6.40
2018-08-17T17:37:46.307Z,6.33
2018-08-17T17:42:50.080Z,7.17
2018-08-17T17:47:54.647Z,6.90
2018-08-17T17:52:58.710Z,7.27
2018-08-17T17:58:04.253Z,7.70
2018-08-17T18:03:08.685Z,8.50
2018-08-17T18:08:18.325Z,8.23
2018-08-17T18:13:22.162Z,8.88
2018-08-17T18:18:26.560Z,8.53
2018-08-17T18:23:31.181Z,8.07
2018-08-17T18:28:37.910Z,8.05
2018-08-17T18:33:41.598Z,8.73
2018-08-17T18:38:45.134Z,9.23
2018-08-17T18:43:51.992Z,9.20
2018-08-17T18:48:56.789Z,8.90
2018-08-17T18:54:01.136Z,8.80
2018-08-17T18:59:24.061Z,8.48
2018-08-17T19:04:28.409Z,9.20
2018-08-17T19:09:45.029Z,9.50
2018-08-17T19:14:51.033Z,9.33
2018-08-17T19:20:00.741Z,9.25
2018-08-17T19:25:06.917Z,9.43
2018-08-17T19:30:21.382Z,9.40
2018-08-17T19:35:40.290Z,8.60
2018-08-17T19:40:45.610Z,9.67
2018-08-17T19:45:51.566Z,9.23
2018-08-17T19:51:05.625Z,8.40
2018-08-17T19:56:28.365Z,9.10
2018-08-17T20:12:40.020Z,9.40
2018-08-17T20:17:50.719Z,8.50
2018-08-17T20:23:10.002Z,9.53
2018-08-17T20:28:13.788Z,9.20
2018-08-17T20:38:18.020Z,10.20
2018-08-17T20:43:21.424Z,9.80
2018-08-17T20:48:24.787Z,10.28
2018-08-17T20:53:28.125Z,10.45
2018-08-17T20:58:31.452Z,9.95
2018-08-17T21:03:34.892Z,10.63
2018-08-17T21:08:38.237Z,10.20
2018-08-17T21:13:41.637Z,9.90
2018-08-17T21:18:45.067Z,10.40
2018-08-17T21:23:52.270Z,9.93
2018-08-17T21:28:55.719Z,10.17
2018-08-17T21:33:59.134Z,10.63
2018-08-17T21:39:12.793Z,10.98
2018-08-17T21:44:18.551Z,9.58
2018-08-17T21:49:24.190Z,10.57
2018-08-17T21:54:29.512Z,10.32
2018-08-17T21:59:37.998Z,10.80
2018-08-17T22:04:41.502Z,10.18
2018-08-17T22:09:44.848Z,10.70
2018-08-17T22:14:49.092Z,10.40
2018-08-17T22:19:52.596Z,11.93
2018-08-17T22:24:56.994Z,12.13
2018-08-17T22:30:00.437Z,12.67
2018-08-17T22:35:03.943Z,13.13
2018-08-17T22:40:07.979Z,14.60
2018-08-17T22:45:11.411Z,14.07
2018-08-17T22:50:14.935Z,16.00
2018-08-17T22:55:18.333Z,17.37
2018-08-17T23:00:23.678Z,15.95
2018-08-17T23:05:28.815Z,17.92
2018-08-17T23:10:32.185Z,18.27
2018-08-17T23:15:35.973Z,18.65
2018-08-17T23:20:39.358Z,19.37
2018-08-17T23:25:42.744Z,18.75
2018-08-17T23:30:46.108Z,19.80
2018-08-17T23:35:56.179Z,21.37
2018-08-17T23:40:59.571Z,21.77
2018-08-17T23:46:02.950Z,20.08
2018-08-17T23:51:06.356Z,20.70
2018-08-17T23:56:09.991Z,19.60
